createdAt,value
2022-08-02T00:00:17.381Z,63.42
2022-08-02T00:02:46.419Z,63.41
2022-08-02T00:05:14.579Z,63.75
2022-08-02T00:07:42.387Z,63.34
2022-08-02T00:10:12.171Z,63.26
2022-08-02T00:12:40.326Z,62.70
2022-08-02T00:15:15.769Z,62.99
2022-08-02T00:17:44.073Z,62.82
2022-08-02T00:20:12.819Z,62.23
2022-08-02T00:22:40.591Z,62.37
2022-08-02T00:25:12.963Z,62.95
2022-08-02T00:27:41.823Z,63.21
2022-08-02T00:30:11.995Z,63.52
2022-08-02T00:32:39.499Z,63.67
2022-08-02T00:35:08.397Z,63.30
2022-08-02T00:37:39.934Z,63.20
2022-08-02T00:40:08.650Z,63.32
2022-08-02T00:42:36.240Z,63.42
2022-08-02T00:45:03.952Z,63.55
2022-08-02T00:47:32.849Z,64.02
2022-08-02T00:50:00.466Z,63.25
2022-08-02T00:52:28.050Z,62.76
2022-08-02T00:54:55.605Z,62.19
2022-08-02T00:57:23.127Z,62.62
2022-08-02T00:59:50.715Z,62.17
2022-08-02T01:02:18.297Z,62.25
2022-08-02T01:04:47.268Z,63.01
2022-08-02T01:07:15.768Z,62.44
2022-08-02T01:09:43.466Z,62.28
2022-08-02T01:12:12.404Z,62.25
2022-08-02T01:14:42.888Z,62.38
2022-08-02T01:17:16.613Z,62.81
2022-08-02T01:19:52.481Z,62.58
2022-08-02T01:23:00.555Z,61.99
2022-08-02T01:25:40.728Z,62.38
2022-08-02T01:28:29.289Z,62.46
2022-08-02T01:31:00.536Z,62.66
2022-08-02T01:33:36.207Z,62.92
2022-08-02T01:36:05.883Z,62.91
2022-08-02T01:38:38.573Z,63.31
2022-08-02T01:41:08.945Z,63.88
2022-08-02T01:43:41.257Z,63.29
2022-08-02T01:46:10.147Z,63.24
2022-08-02T01:48:38.984Z,63.14
2022-08-02T01:51:09.346Z,63.20
2022-08-02T01:53:38.154Z,64.43
2022-08-02T01:56:08.127Z,64.75
2022-08-02T01:58:40.506Z,64.06
2022-08-02T02:01:10.466Z,63.18
2022-08-02T02:03:45.051Z,63.17
2022-08-02T02:06:13.366Z,63.29
2022-08-02T02:08:42.630Z,63.41
2022-08-02T02:12:03.984Z,63.93
2022-08-02T02:14:01.379Z,64.20
2022-08-02T02:16:31.895Z,64.15
2022-08-02T02:19:02.681Z,64.72
2022-08-02T02:21:31.410Z,64.61
2022-08-02T02:23:59.892Z,64.75
2022-08-02T02:26:31.667Z,64.85
2022-08-02T02:29:02.773Z,65.05
2022-08-02T02:31:33.554Z,64.95
2022-08-02T02:34:05.504Z,65.39
2022-08-02T02:36:35.743Z,65.26
2022-08-02T02:39:11.614Z,65.18
2022-08-02T02:41:42.424Z,65.12
2022-08-02T02:44:14.693Z,65.38
2022-08-02T02:46:42.698Z,65.35
2022-08-02T02:49:12.789Z,65.47
2022-08-02T02:51:41.649Z,65.28
2022-08-02T02:54:29.791Z,65.86
2022-08-02T02:56:59.759Z,65.47
2022-08-02T02:59:29.368Z,65.34
2022-08-02T03:02:08.417Z,65.40
2022-08-02T03:04:56.844Z,65.31
2022-08-02T03:07:24.658Z,65.15
2022-08-02T03:09:54.435Z,65.46
2022-08-02T03:12:30.309Z,65.54
2022-08-02T03:15:01.351Z,65.73
2022-08-02T03:17:38.705Z,66.01
2022-08-02T03:20:11.697Z,65.45
2022-08-02T03:22:39.265Z,65.56
2022-08-02T03:25:08.210Z,65.48
2022-08-02T03:27:35.832Z,65.59
2022-08-02T03:30:06.710Z,65.76
2022-08-02T03:32:34.750Z,65.17
2022-08-02T03:35:03.004Z,65.54
2022-08-02T03:37:31.362Z,65.69
2022-08-02T03:40:00.029Z,64.80
2022-08-02T03:42:28.900Z,65.03
2022-08-02T03:44:56.805Z,64.83
2022-08-02T03:47:26.284Z,65.66
2022-08-02T03:49:55.153Z,64.95
2022-08-02T03:52:23.778Z,65.16
2022-08-02T03:54:51.554Z,64.76
2022-08-02T03:57:19.592Z,64.53
2022-08-02T03:59:47.974Z,65.09
2022-08-02T04:02:15.493Z,64.78
2022-08-02T04:04:44.383Z,64.59
2022-08-02T04:07:11.926Z,64.44
2022-08-02T04:09:39.502Z,64.37
2022-08-02T04:12:07.710Z,64.31
2022-08-02T04:14:36.869Z,64.44
2022-08-02T04:17:08.426Z,64.62
2022-08-02T04:19:40.058Z,63.93
2022-08-02T04:22:15.110Z,64.14
2022-08-02T04:24:49.824Z,65.00
2022-08-02T04:27:50.404Z,64.49
2022-08-02T04:30:08.673Z,64.24
2022-08-02T04:32:36.679Z,63.71
2022-08-02T04:35:19.232Z,63.73
2022-08-02T04:38:05.584Z,64.06
2022-08-02T04:40:38.158Z,64.01
2022-08-02T04:43:05.835Z,64.30
2022-08-02T04:45:33.697Z,64.62
2022-08-02T04:48:04.973Z,64.51
2022-08-02T04:50:32.737Z,64.81
2022-08-02T04:53:01.682Z,65.36
2022-08-02T04:55:29.955Z,65.66
2022-08-02T04:57:58.547Z,65.75
2022-08-02T05:00:27.803Z,65.63
2022-08-02T05:02:56.740Z,65.99
2022-08-02T05:05:24.617Z,65.27
2022-08-02T05:07:52.276Z,65.56
2022-08-02T05:10:21.411Z,64.99
2022-08-02T05:12:49.065Z,65.98
2022-08-02T05:15:18.493Z,65.44
2022-08-02T05:17:47.845Z,65.76
2022-08-02T05:20:17.006Z,65.97
2022-08-02T05:22:44.565Z,65.87
2022-08-02T05:25:12.298Z,65.21
2022-08-02T05:27:41.242Z,65.30
2022-08-02T05:30:10.319Z,65.20
2022-08-02T05:32:44.780Z,65.28
2022-08-02T05:35:12.846Z,66.33
2022-08-02T05:37:42.214Z,65.82
2022-08-02T05:40:12.920Z,65.84
2022-08-02T05:42:42.336Z,65.76
2022-08-02T05:45:10.709Z,66.00
2022-08-02T05:47:38.878Z,65.90
2022-08-02T05:50:09.199Z,66.61
2022-08-02T05:52:46.979Z,66.90
2022-08-02T05:55:19.059Z,67.08
2022-08-02T05:57:54.402Z,67.49
2022-08-02T06:00:22.947Z,66.89
2022-08-02T07:23:45.266Z,64.52
2022-08-02T07:26:12.986Z,64.44
2022-08-02T07:28:42.770Z,63.83
2022-08-02T07:31:10.304Z,63.38
2022-08-02T07:33:40.131Z,63.14
2022-08-02T07:36:17.037Z,62.61
2022-08-02T07:39:10.349Z,62.79
2022-08-02T07:56:25.036Z,60.82
2022-08-02T07:58:52.596Z,60.78
2022-08-02T08:01:20.419Z,60.65
2022-08-02T08:03:48.019Z,60.29
2022-08-02T08:06:15.874Z,59.39
2022-08-02T08:08:43.874Z,59.18
2022-08-02T08:11:11.545Z,59.21
2022-08-02T08:13:40.499Z,58.82
2022-08-02T08:16:08.056Z,58.94
2022-08-02T08:18:36.188Z,58.93
2022-08-02T08:21:04.215Z,58.78
2022-08-02T08:23:31.888Z,58.38
2022-08-02T08:25:59.462Z,58.00
2022-08-02T08:28:27.018Z,57.69
2022-08-02T08:30:56.095Z,57.65
2022-08-02T08:33:23.736Z,57.57
2022-08-02T08:35:51.308Z,57.35
2022-08-02T08:38:18.908Z,56.82
2022-08-02T08:40:47.918Z,57.07
2022-08-02T08:43:15.722Z,56.90
2022-08-02T08:45:44.766Z,56.26
2022-08-02T08:48:30.867Z,56.32
2022-08-02T08:51:05.416Z,56.08
2022-08-02T08:53:37.220Z,55.78
2022-08-02T08:56:05.590Z,55.64
2022-08-02T08:58:33.189Z,55.19
2022-08-02T09:01:01.075Z,55.17
2022-08-02T09:03:33.907Z,54.69
2022-08-02T09:06:02.515Z,54.33
2022-08-02T09:08:33.059Z,53.90
2022-08-02T09:11:01.519Z,53.74
2022-08-02T09:13:39.018Z,53.65
2022-08-02T09:16:14.716Z,53.56
2022-08-02T09:18:46.124Z,52.94
2022-08-02T09:21:15.925Z,52.90
2022-08-02T09:23:45.420Z,52.54
2022-08-02T09:26:14.805Z,52.38
2022-08-02T09:28:46.396Z,52.57
2022-08-02T09:31:18.071Z,52.20
2022-08-02T09:33:52.601Z,52.09
2022-08-02T09:36:20.194Z,51.66
2022-08-02T09:38:55.673Z,50.64
2022-08-02T09:41:25.338Z,51.06
2022-08-02T09:44:05.334Z,50.86
2022-08-02T09:46:37.730Z,50.31
2022-08-02T09:49:09.114Z,49.59
2022-08-02T09:51:39.480Z,49.17
2022-08-02T09:54:09.360Z,49.61
2022-08-02T09:56:46.699Z,49.44
2022-08-02T09:59:15.571Z,49.52
2022-08-02T10:01:50.518Z,49.22
2022-08-02T10:04:24.950Z,47.46
2022-08-02T10:06:54.743Z,47.62
2022-08-02T10:09:23.697Z,47.17
2022-08-02T10:11:52.737Z,48.00
2022-08-02T10:14:21.990Z,47.57
2022-08-02T10:16:49.732Z,46.58
2022-08-02T10:19:17.326Z,43.82
2022-08-02T10:21:50.785Z,44.20
2022-08-02T10:24:21.967Z,43.20
2022-08-02T10:26:50.370Z,43.47
2022-08-02T10:29:20.632Z,42.79
2022-08-02T10:31:52.200Z,42.26
2022-08-02T10:34:24.185Z,41.90
2022-08-02T10:37:03.776Z,42.74
2022-08-02T10:39:39.796Z,42.07
2022-08-02T10:42:07.513Z,41.50
2022-08-02T10:44:36.890Z,41.74
2022-08-02T10:47:25.002Z,40.82
2022-08-02T10:49:54.593Z,39.60
2022-08-02T10:52:24.404Z,39.71
2022-08-02T10:54:56.931Z,39.18
2022-08-02T10:57:26.647Z,39.84
2022-08-02T10:59:57.894Z,39.89
2022-08-02T11:02:40.077Z,39.80
2022-08-02T11:05:17.250Z,40.25
2022-08-02T11:07:49.276Z,39.23
2022-08-02T11:10:38.368Z,38.82
2022-08-02T11:13:14.949Z,38.94
2022-08-02T11:15:56.929Z,39.00
2022-08-02T11:19:06.841Z,38.63
2022-08-02T11:21:35.822Z,38.55
2022-08-02T11:24:28.305Z,38.63
2022-08-02T11:26:57.159Z,38.92
2022-08-02T11:29:38.559Z,37.91
2022-08-02T11:32:07.211Z,38.06
2022-08-02T11:34:37.561Z,38.19
2022-08-02T11:37:06.075Z,38.38
2022-08-02T11:39:34.958Z,37.39
2022-08-02T11:42:02.560Z,36.66
2022-08-02T11:44:31.617Z,36.73
2022-08-02T11:47:01.185Z,36.95
2022-08-02T11:49:29.622Z,36.55
2022-08-02T11:52:01.723Z,36.49
2022-08-02T11:54:31.680Z,36.18
2022-08-02T11:57:20.127Z,36.69
2022-08-02T11:59:50.636Z,36.06
2022-08-02T12:02:19.897Z,36.42
2022-08-02T12:04:53.862Z,35.73
2022-08-02T12:07:33.609Z,36.03
2022-08-02T12:10:07.109Z,35.80
2022-08-02T12:12:48.865Z,35.82
2022-08-02T12:15:17.290Z,35.46
2022-08-02T12:18:05.143Z,35.65
2022-08-02T12:20:37.045Z,36.17
2022-08-02T12:23:04.503Z,36.27
2022-08-02T12:25:33.615Z,35.71
2022-08-02T12:28:18.639Z,34.71
2022-08-02T12:30:54.287Z,34.97
2022-08-02T12:33:23.805Z,35.11
2022-08-02T12:35:51.612Z,35.19
2022-08-02T12:38:19.225Z,35.31
2022-08-02T12:40:47.714Z,35.13
2022-08-02T12:43:21.787Z,34.41
2022-08-02T12:45:52.787Z,34.42
2022-08-02T12:48:38.388Z,34.60
2022-08-02T12:51:23.851Z,34.52
2022-08-02T12:53:59.701Z,34.76
2022-08-02T12:56:29.315Z,34.25
2022-08-02T12:58:58.303Z,34.24
2022-08-02T13:01:27.912Z,34.06
2022-08-02T13:04:07.641Z,34.11
2022-08-02T13:06:43.822Z,34.19
2022-08-02T13:09:17.222Z,34.54
2022-08-02T13:11:45.635Z,33.86
2022-08-02T13:14:15.519Z,33.53
2022-08-02T13:16:45.114Z,33.22
2022-08-02T13:19:15.157Z,32.86
2022-08-02T13:22:11.543Z,33.19
2022-08-02T13:24:38.517Z,32.79
2022-08-02T13:27:08.683Z,32.43
2022-08-02T13:29:38.670Z,32.25
2022-08-02T13:32:06.495Z,32.30
2022-08-02T13:34:34.051Z,31.66
2022-08-02T13:37:01.719Z,31.39
2022-08-02T13:39:29.265Z,31.57
2022-08-02T13:41:56.818Z,31.18
2022-08-02T13:44:24.356Z,31.49
2022-08-02T13:46:53.417Z,31.37
2022-08-02T13:49:21.914Z,30.02
2022-08-02T13:52:09.007Z,29.65
2022-08-02T13:54:36.612Z,29.83
2022-08-02T14:16:11.542Z,29.32
2022-08-02T14:24:21.874Z,29.03
2022-08-02T15:57:06.892Z,27.20
2022-08-02T15:59:40.636Z,26.45
2022-08-02T16:02:11.382Z,26.31
2022-08-02T16:21:09.429Z,27.10
2022-08-02T16:23:59.562Z,26.93
2022-08-02T16:26:45.664Z,27.38
2022-08-02T16:29:23.255Z,27.86
2022-08-02T16:31:57.902Z,27.82
2022-08-02T16:40:04.641Z,29.27
2022-08-02T17:04:26.030Z,29.29
2022-08-02T17:07:01.677Z,28.20
2022-08-02T17:10:03.436Z,28.23
2022-08-02T19:08:09.560Z,39.67
2022-08-02T19:10:39.621Z,41.89
2022-08-02T19:13:18.347Z,38.72
2022-08-02T19:15:46.035Z,38.33
2022-08-02T19:18:15.661Z,38.76
2022-08-02T19:20:48.386Z,41.06
2022-08-02T19:23:17.574Z,39.50
2022-08-02T19:25:50.375Z,40.53
2022-08-02T19:28:22.555Z,43.08
2022-08-02T19:31:12.130Z,41.02
2022-08-02T19:34:08.757Z,41.21
2022-08-02T19:36:40.582Z,43.03
2022-08-02T19:39:11.230Z,44.29
2022-08-02T19:41:47.024Z,43.40
2022-08-02T19:44:25.770Z,45.03
2022-08-02T19:46:56.477Z,45.19
2022-08-02T19:49:40.147Z,45.17
2022-08-02T19:52:20.288Z,45.78
2022-08-02T19:54:55.495Z,45.21
2022-08-02T19:57:25.007Z,46.80
2022-08-02T19:59:54.041Z,44.33
2022-08-02T20:02:21.818Z,45.24
2022-08-02T20:04:50.327Z,44.45
2022-08-02T20:07:54.711Z,45.34
2022-08-02T20:10:11.572Z,44.96
2022-08-02T20:12:39.715Z,44.75
2022-08-02T20:15:15.024Z,45.01
2022-08-02T20:17:47.616Z,46.02
2022-08-02T20:20:16.834Z,46.55
2022-08-02T20:23:32.286Z,46.91
2022-08-02T20:25:53.983Z,46.71
2022-08-02T20:28:22.374Z,45.88
2022-08-02T20:30:50.665Z,46.72
2022-08-02T20:33:21.725Z,45.50
2022-08-02T20:35:51.668Z,46.99
2022-08-02T20:38:24.988Z,46.78
2022-08-02T20:40:58.820Z,47.30
2022-08-02T20:43:31.533Z,46.37
2022-08-02T20:46:03.372Z,48.11
2022-08-02T20:48:31.184Z,47.53
2022-08-02T20:50:58.798Z,47.98
2022-08-02T20:53:29.856Z,48.49
2022-08-02T20:55:59.128Z,49.02
2022-08-02T20:58:28.105Z,47.68
2022-08-02T21:00:59.018Z,48.48
2022-08-02T21:09:02.788Z,49.18
2022-08-02T21:11:34.695Z,49.41
2022-08-02T21:14:08.761Z,50.39
2022-08-02T21:16:36.934Z,50.29
2022-08-02T21:19:09.605Z,50.17
2022-08-02T21:21:37.645Z,49.79
2022-08-02T21:24:06.067Z,50.73
2022-08-02T21:26:34.953Z,50.87
2022-08-02T21:31:51.204Z,51.04
2022-08-02T21:34:27.265Z,50.96
2022-08-02T21:36:55.577Z,51.23
2022-08-02T21:39:23.515Z,51.06
2022-08-02T21:41:52.717Z,51.74
2022-08-02T21:44:22.757Z,51.52
2022-08-02T21:46:51.871Z,51.75
2022-08-02T21:49:20.623Z,52.16
2022-08-02T21:51:50.131Z,52.27
2022-08-02T21:54:21.355Z,51.54
2022-08-02T21:56:50.264Z,51.45
2022-08-02T21:59:25.677Z,51.74
2022-08-02T22:01:54.579Z,52.52
2022-08-02T22:04:24.750Z,51.81
2022-08-02T22:06:52.258Z,52.62
2022-08-02T22:12:12.647Z,53.05
2022-08-02T22:14:49.761Z,52.41
2022-08-02T22:17:49.828Z,53.40
2022-08-02T22:20:12.449Z,52.66
2022-08-02T22:22:40.466Z,52.84
2022-08-02T22:25:10.021Z,53.64
2022-08-02T22:28:36.328Z,53.22
2022-08-02T22:30:38.697Z,53.19
2022-08-02T22:33:33.372Z,53.08
2022-08-02T22:36:01.619Z,53.13
2022-08-02T22:38:29.609Z,53.04
2022-08-02T22:40:57.135Z,53.12
2022-08-02T22:43:24.646Z,52.69
2022-08-02T22:45:53.474Z,53.37
2022-08-02T22:48:21.012Z,53.47
2022-08-02T22:50:52.373Z,53.96
2022-08-02T22:53:35.347Z,53.68
2022-08-02T22:56:03.568Z,53.93
2022-08-02T22:58:32.151Z,54.98
2022-08-02T22:58:56.963Z,49.17
2022-08-02T22:59:02.909Z,51.26
2022-08-02T22:59:04.204Z,52.31
2022-08-02T22:59:12.142Z,48.21
2022-08-02T23:01:01.703Z,54.30
2022-08-02T23:03:29.641Z,54.83
2022-08-02T23:05:57.309Z,54.63
2022-08-02T23:08:25.109Z,54.92
2022-08-02T23:10:52.762Z,54.35
2022-08-02T23:13:21.210Z,54.51
2022-08-02T23:16:08.289Z,54.40
2022-08-02T23:18:54.916Z,54.78
2022-08-02T23:21:27.725Z,54.42
2022-08-02T23:24:10.046Z,54.46
2022-08-02T23:26:37.545Z,54.20
2022-08-02T23:29:05.063Z,54.95
2022-08-02T23:31:38.013Z,55.92
2022-08-02T23:34:07.327Z,55.53
2022-08-02T23:36:35.058Z,54.90
2022-08-02T23:39:02.613Z,55.29
2022-08-02T23:41:30.115Z,55.45
2022-08-02T23:44:13.117Z,55.67
2022-08-02T23:46:42.016Z,55.45
2022-08-02T23:49:11.258Z,55.79
2022-08-02T23:51:38.863Z,55.80
2022-08-02T23:54:06.621Z,55.70
2022-08-02T23:56:34.141Z,55.91
2022-08-02T23:59:01.653Z,55.78
